sensor_id;sensor_type;location;lat;lon;timestamp;pressure;altitude;pressure_sealevel;temperature;humidity
82555;BME280;72219;48.186;11.554;2024-02-28T00:02:09;95526.44;;;15.31;43.58
82555;BME280;72219;48.186;11.554;2024-02-28T00:04:34;95522.50;;;15.36;43.83
82555;BME280;72219;48.186;11.554;2024-02-28T00:06:59;95508.59;;;15.20;43.84
82555;BME280;72219;48.186;11.554;2024-02-28T00:09:25;95520.25;;;15.33;43.68
82555;BME280;72219;48.186;11.554;2024-02-28T00:11:50;95525.75;;;15.38;43.42
82555;BME280;72219;48.186;11.554;2024-02-28T00:14:17;95530.69;;;15.33;43.64
82555;BME280;72219;48.186;11.554;2024-02-28T00:16:43;95520.59;;;15.29;43.86
82555;BME280;72219;48.186;11.554;2024-02-28T00:19:10;95521.75;;;15.27;43.70
82555;BME280;72219;48.186;11.554;2024-02-28T00:21:40;95497.94;;;15.07;44.10
82555;BME280;72219;48.186;11.554;2024-02-28T00:24:06;95525.00;;;15.29;43.96
82555;BME280;72219;48.186;11.554;2024-02-28T00:26:31;95520.59;;;15.29;44.02
82555;BME280;72219;48.186;11.554;2024-02-28T00:28:57;95521.69;;;15.35;43.51
82555;BME280;72219;48.186;11.554;2024-02-28T00:31:25;95524.19;;;15.28;43.46
82555;BME280;72219;48.186;11.554;2024-02-28T00:33:51;95514.00;;;15.19;43.89
82555;BME280;72219;48.186;11.554;2024-02-28T00:36:16;95525.00;;;15.29;43.65
82555;BME280;72219;48.186;11.554;2024-02-28T00:38:42;95515.44;;;15.21;43.71
82555;BME280;72219;48.186;11.554;2024-02-28T00:41:07;95526.13;;;15.26;43.82
82555;BME280;72219;48.186;11.554;2024-02-28T00:43:33;95535.88;;;15.33;43.49
82555;BME280;72219;48.186;11.554;2024-02-28T00:45:58;95538.03;;;15.29;44.04
82555;BME280;72219;48.186;11.554;2024-02-28T00:48:24;95548.63;;;15.27;44.07
82555;BME280;72219;48.186;11.554;2024-02-28T00:50:50;95538.91;;;15.21;43.61
82555;BME280;72219;48.186;11.554;2024-02-28T00:53:16;95549.50;;;15.20;44.04
82555;BME280;72219;48.186;11.554;2024-02-28T00:55:42;95544.78;;;15.15;43.64
82555;BME280;72219;48.186;11.554;2024-02-28T00:58:07;95557.47;;;15.18;44.03
82555;BME280;72219;48.186;11.554;2024-02-28T01:00:33;95566.88;;;15.27;43.58
82555;BME280;72219;48.186;11.554;2024-02-28T01:02:58;95573.03;;;15.35;43.59
82555;BME280;72219;48.186;11.554;2024-02-28T01:05:23;95581.88;;;15.25;44.00
82555;BME280;72219;48.186;11.554;2024-02-28T01:07:49;95582.69;;;15.26;43.76
82555;BME280;72219;48.186;11.554;2024-02-28T01:10:14;95585.16;;;15.19;43.88
82555;BME280;72219;48.186;11.554;2024-02-28T01:12:40;95598.81;;;15.29;44.02
82555;BME280;72219;48.186;11.554;2024-02-28T01:15:05;95597.19;;;15.28;44.03
82555;BME280;72219;48.186;11.554;2024-02-28T01:17:31;95603.38;;;15.27;43.63
82555;BME280;72219;48.186;11.554;2024-02-28T01:19:56;95592.94;;;15.27;43.53
82555;BME280;72219;48.186;11.554;2024-02-28T01:22:22;95604.69;;;15.23;43.83
82555;BME280;72219;48.186;11.554;2024-02-28T01:24:47;95609.56;;;15.26;43.71
82555;BME280;72219;48.186;11.554;2024-02-28T01:27:13;95612.88;;;15.20;43.87
82555;BME280;72219;48.186;11.554;2024-02-28T01:29:40;95615.13;;;15.23;43.50
82555;BME280;72219;48.186;11.554;2024-02-28T01:32:05;95614.66;;;15.20;43.68
82555;BME280;72219;48.186;11.554;2024-02-28T01:34:30;95633.19;;;15.25;43.77
82555;BME280;72219;48.186;11.554;2024-02-28T01:36:56;95627.19;;;15.24;43.76
82555;BME280;72219;48.186;11.554;2024-02-28T01:39:24;95630.25;;;15.28;43.94
82555;BME280;72219;48.186;11.554;2024-02-28T01:41:55;95627.81;;;15.26;43.57
82555;BME280;72219;48.186;11.554;2024-02-28T01:44:22;95622.44;;;15.28;43.82
82555;BME280;72219;48.186;11.554;2024-02-28T01:46:47;95614.66;;;15.20;43.78
82555;BME280;72219;48.186;11.554;2024-02-28T01:49:13;95625.38;;;15.25;44.05
82555;BME280;72219;48.186;11.554;2024-02-28T01:51:41;95616.63;;;15.18;43.79
82555;BME280;72219;48.186;11.554;2024-02-28T01:54:11;95618.69;;;15.22;43.87
82555;BME280;72219;48.186;11.554;2024-02-28T01:56:37;95610.75;;;15.16;43.66
82555;BME280;72219;48.186;11.554;2024-02-28T01:59:04;95621.63;;;15.27;43.60
82555;BME280;72219;48.186;11.554;2024-02-28T02:01:30;95609.59;;;15.18;43.80
82555;BME280;72219;48.186;11.554;2024-02-28T02:03:56;95619.84;;;15.28;43.56
82555;BME280;72219;48.186;11.554;2024-02-28T02:06:25;95594.31;;;15.15;43.89
82555;BME280;72219;48.186;11.554;2024-02-28T02:08:51;95598.38;;;15.18;44.01
82555;BME280;72219;48.186;11.554;2024-02-28T02:11:17;95615.47;;;15.20;43.91
82555;BME280;72219;48.186;11.554;2024-02-28T02:13:53;95611.53;;;15.24;43.91
82555;BME280;72219;48.186;11.554;2024-02-28T02:16:19;95602.78;;;15.17;43.82
82555;BME280;72219;48.186;11.554;2024-02-28T02:18:51;95618.03;;;15.28;43.49
82555;BME280;72219;48.186;11.554;2024-02-28T02:21:23;95613.00;;;15.27;43.70
82555;BME280;72219;48.186;11.554;2024-02-28T02:23:49;95610.44;;;15.19;43.88
82555;BME280;72219;48.186;11.554;2024-02-28T02:26:15;95605.03;;;15.20;43.77
82555;BME280;72219;48.186;11.554;2024-02-28T02:28:40;95609.47;;;15.20;43.73
82555;BME280;72219;48.186;11.554;2024-02-28T02:31:05;95616.78;;;15.16;43.94
82555;BME280;72219;48.186;11.554;2024-02-28T02:33:31;95609.47;;;15.11;43.86
82555;BME280;72219;48.186;11.554;2024-02-28T02:35:58;95617.91;;;15.22;43.65
82555;BME280;72219;48.186;11.554;2024-02-28T02:38:24;95604.25;;;15.11;43.62
82555;BME280;72219;48.186;11.554;2024-02-28T02:40:53;95599.78;;;14.97;44.27
82555;BME280;72219;48.186;11.554;2024-02-28T02:43:18;95608.84;;;15.09;44.22
82555;BME280;72219;48.186;11.554;2024-02-28T02:45:44;95608.03;;;15.09;43.87
82555;BME280;72219;48.186;11.554;2024-02-28T02:48:11;95609.03;;;15.08;44.07
82555;BME280;72219;48.186;11.554;2024-02-28T02:50:36;95615.16;;;15.15;44.07
82555;BME280;72219;48.186;11.554;2024-02-28T02:53:09;95610.94;;;15.14;43.51
82555;BME280;72219;48.186;11.554;2024-02-28T02:55:34;95606.09;;;15.03;44.03
82555;BME280;72219;48.186;11.554;2024-02-28T02:57:59;95621.22;;;15.07;44.17
82555;BME280;72219;48.186;11.554;2024-02-28T03:00:25;95633.44;;;15.07;44.01
82555;BME280;72219;48.186;11.554;2024-02-28T03:02:51;95637.38;;;15.03;44.27
82555;BME280;72219;48.186;11.554;2024-02-28T03:05:17;95639.63;;;15.06;44.20
82555;BME280;72219;48.186;11.554;2024-02-28T03:07:43;95637.06;;;14.97;44.07
82555;BME280;72219;48.186;11.554;2024-02-28T03:10:09;95638.34;;;15.02;44.32
82555;BME280;72219;48.186;11.554;2024-02-28T03:12:35;95637.22;;;14.96;43.87
82555;BME280;72219;48.186;11.554;2024-02-28T03:15:01;95652.50;;;15.07;43.74
82555;BME280;72219;48.186;11.554;2024-02-28T03:17:27;95643.69;;;15.08;43.95
82555;BME280;72219;48.186;11.554;2024-02-28T03:19:52;95646.31;;;15.08;44.07
82555;BME280;72219;48.186;11.554;2024-02-28T03:22:17;95650.22;;;15.04;43.83
82555;BME280;72219;48.186;11.554;2024-02-28T03:24:43;95658.56;;;15.00;43.85
82555;BME280;72219;48.186;11.554;2024-02-28T03:27:08;95657.72;;;14.99;44.32
82555;BME280;72219;48.186;11.554;2024-02-28T03:29:33;95656.97;;;14.90;43.99
82555;BME280;72219;48.186;11.554;2024-02-28T03:31:59;95656.97;;;14.90;44.30
82555;BME280;72219;48.186;11.554;2024-02-28T03:34:24;95657.91;;;14.97;43.94
82555;BME280;72219;48.186;11.554;2024-02-28T03:36:50;95653.03;;;14.94;44.33
82555;BME280;72219;48.186;11.554;2024-02-28T03:39:17;95663.78;;;15.00;44.14
82555;BME280;72219;48.186;11.554;2024-02-28T03:41:42;95656.75;;;15.00;43.93
82555;BME280;72219;48.186;11.554;2024-02-28T03:44:08;95667.66;;;15.04;44.01
82555;BME280;72219;48.186;11.554;2024-02-28T03:46:33;95665.22;;;15.02;43.98
82555;BME280;72219;48.186;11.554;2024-02-28T03:48:59;95667.22;;;14.92;44.05
82555;BME280;72219;48.186;11.554;2024-02-28T03:51:25;95676.81;;;15.00;43.99
82555;BME280;72219;48.186;11.554;2024-02-28T03:53:51;95676.81;;;15.00;43.92
82555;BME280;72219;48.186;11.554;2024-02-28T03:56:25;95681.69;;;14.94;44.27
82555;BME280;72219;48.186;11.554;2024-02-28T03:58:52;95672.91;;;14.87;44.25
82555;BME280;72219;48.186;11.554;2024-02-28T04:01:17;95683.66;;;14.92;44.38
82555;BME280;72219;48.186;11.554;2024-02-28T04:03:43;95690.97;;;14.97;44.00
82555;BME280;72219;48.186;11.554;2024-02-28T04:06:09;95690.47;;;14.93;43.99
82555;BME280;72219;48.186;11.554;2024-02-28T04:08:35;95691.16;;;14.95;44.00
82555;BME280;72219;48.186;11.554;2024-02-28T04:11:01;95693.75;;;14.95;43.93
82555;BME280;72219;48.186;11.554;2024-02-28T04:13:26;95703.50;;;15.02;44.11
82555;BME280;72219;48.186;11.554;2024-02-28T04:15:51;95703.16;;;14.96;43.96
82555;BME280;72219;48.186;11.554;2024-02-28T04:18:17;95709.66;;;15.01;44.03
82555;BME280;72219;48.186;11.554;2024-02-28T04:20:42;95708.69;;;15.02;43.88
82555;BME280;72219;48.186;11.554;2024-02-28T04:23:08;95713.28;;;15.00;43.92
82555;BME280;72219;48.186;11.554;2024-02-28T04:25:33;95716.84;;;14.99;43.96
82555;BME280;72219;48.186;11.554;2024-02-28T04:27:59;95719.94;;;14.94;44.49
82555;BME280;72219;48.186;11.554;2024-02-28T04:30:24;95719.50;;;14.90;44.09
82555;BME280;72219;48.186;11.554;2024-02-28T04:32:51;95721.75;;;14.93;44.17
82555;BME280;72219;48.186;11.554;2024-02-28T04:35:16;95729.72;;;15.00;43.85
82555;BME280;72219;48.186;11.554;2024-02-28T04:37:46;95725.03;;;14.95;44.00
82555;BME280;72219;48.186;11.554;2024-02-28T04:40:13;95729.72;;;15.00;44.16
82555;BME280;72219;48.186;11.554;2024-02-28T04:42:42;95729.22;;;14.96;44.37
82555;BME280;72219;48.186;11.554;2024-02-28T04:45:10;95725.03;;;14.95;44.13
82555;BME280;72219;48.186;11.554;2024-02-28T04:47:39;95725.50;;;14.91;43.74
82555;BME280;72219;48.186;11.554;2024-02-28T04:50:05;95737.72;;;14.99;44.22
82555;BME280;72219;48.186;11.554;2024-02-28T04:52:33;95733.16;;;14.92;44.09
82555;BME280;72219;48.186;11.554;2024-02-28T04:54:59;95740.47;;;14.97;44.23
82555;BME280;72219;48.186;11.554;2024-02-28T04:57:25;95739.19;;;14.93;44.14
82555;BME280;72219;48.186;11.554;2024-02-28T04:59:50;95742.59;;;14.93;44.04
82555;BME280;72219;48.186;11.554;2024-02-28T05:02:16;95752.03;;;14.94;44.29
82555;BME280;72219;48.186;11.554;2024-02-28T05:04:42;95743.75;;;14.91;43.90
82555;BME280;72219;48.186;11.554;2024-02-28T05:07:07;95750.72;;;14.99;44.18
82555;BME280;72219;48.186;11.554;2024-02-28T05:09:33;95757.72;;;14.98;43.97
82555;BME280;72219;48.186;11.554;2024-02-28T05:11:59;95758.22;;;14.93;43.82
82555;BME280;72219;48.186;11.554;2024-02-28T05:14:25;95762.63;;;14.93;44.20
82555;BME280;72219;48.186;11.554;2024-02-28T05:16:50;95760.19;;;14.91;44.43
82555;BME280;72219;48.186;11.554;2024-02-28T05:19:15;95768.16;;;14.90;44.06
82555;BME280;72219;48.186;11.554;2024-02-28T05:21:45;95769.31;;;14.95;44.23
82555;BME280;72219;48.186;11.554;2024-02-28T05:24:11;95775.50;;;14.94;44.04
82555;BME280;72219;48.186;11.554;2024-02-28T05:26:38;95769.63;;;14.92;44.35
82555;BME280;72219;48.186;11.554;2024-02-28T05:29:04;95767.69;;;14.94;44.00
82555;BME280;72219;48.186;11.554;2024-02-28T05:31:30;95773.69;;;14.95;44.27
82555;BME280;72219;48.186;11.554;2024-02-28T05:33:59;95780.03;;;14.92;44.22
82555;BME280;72219;48.186;11.554;2024-02-28T05:36:27;95775.00;;;14.91;43.74
82555;BME280;72219;48.186;11.554;2024-02-28T05:38:54;95784.28;;;14.93;44.48
82555;BME280;72219;48.186;11.554;2024-02-28T05:41:20;95789.50;;;14.93;44.00
82555;BME280;72219;48.186;11.554;2024-02-28T05:43:46;95789.84;;;14.90;43.94
82555;BME280;72219;48.186;11.554;2024-02-28T05:46:12;95796.81;;;14.90;44.18
82555;BME280;72219;48.186;11.554;2024-02-28T05:48:40;95794.06;;;14.83;44.21
82555;BME280;72219;48.186;11.554;2024-02-28T05:51:06;95800.41;;;14.89;44.13
82555;BME280;72219;48.186;11.554;2024-02-28T05:53:31;95801.22;;;14.89;44.09
82555;BME280;72219;48.186;11.554;2024-02-28T05:56:07;95815.72;;;14.84;44.02
82555;BME280;72219;48.186;11.554;2024-02-28T05:58:39;95825.47;;;14.90;44.30
82555;BME280;72219;48.186;11.554;2024-02-28T06:01:05;95814.44;;;14.79;44.08
82555;BME280;72219;48.186;11.554;2024-02-28T06:03:30;95825.81;;;14.87;44.13
82555;BME280;72219;48.186;11.554;2024-02-28T06:05:55;95840.97;;;14.91;44.27
82555;BME280;72219;48.186;11.554;2024-02-28T06:08:23;95828.25;;;14.88;44.26
82555;BME280;72219;48.186;11.554;2024-02-28T06:10:48;95848.44;;;14.94;44.11
82555;BME280;72219;48.186;11.554;2024-02-28T06:13:13;95845.00;;;14.94;43.99
82555;BME280;72219;48.186;11.554;2024-02-28T06:15:39;95844.22;;;14.93;43.80
82555;BME280;72219;48.186;11.554;2024-02-28T06:18:04;95838.34;;;14.83;44.20
82555;BME280;72219;48.186;11.554;2024-02-28T06:20:30;95851.06;;;14.86;44.24
82555;BME280;72219;48.186;11.554;2024-02-28T06:22:55;95849.75;;;14.82;44.09
82555;BME280;72219;48.186;11.554;2024-02-28T06:25:20;95865.56;;;14.89;43.98
82555;BME280;72219;48.186;11.554;2024-02-28T06:27:48;95870.75;;;14.89;43.88
82555;BME280;72219;48.186;11.554;2024-02-28T06:30:13;95874.16;;;14.89;44.39
82555;BME280;72219;48.186;11.554;2024-02-28T06:32:39;95871.91;;;14.86;44.55
82555;BME280;72219;48.186;11.554;2024-02-28T06:35:05;95881.50;;;14.94;44.20
82555;BME280;72219;48.186;11.554;2024-02-28T06:37:32;95885.25;;;14.91;43.74
82555;BME280;72219;48.186;11.554;2024-02-28T06:39:57;95879.56;;;14.88;43.63
82555;BME280;72219;48.186;11.554;2024-02-28T06:42:23;95888.00;;;14.90;44.10
82555;BME280;72219;48.186;11.554;2024-02-28T06:44:48;95896.16;;;14.95;43.87
82555;BME280;72219;48.186;11.554;2024-02-28T06:47:13;95879.72;;;14.86;43.88
82555;BME280;72219;48.186;11.554;2024-02-28T06:49:39;95885.91;;;14.93;43.90
82555;BME280;72219;48.186;11.554;2024-02-28T06:52:04;95888.84;;;14.90;43.77
82555;BME280;72219;48.186;11.554;2024-02-28T06:54:30;95888.84;;;14.90;43.79
82555;BME280;72219;48.186;11.554;2024-02-28T06:56:55;95904.31;;;15.00;43.76
82555;BME280;72219;48.186;11.554;2024-02-28T06:59:21;95898.28;;;15.00;44.47
82555;BME280;72219;48.186;11.554;2024-02-28T07:01:46;95911.31;;;15.00;44.12
82555;BME280;72219;48.186;11.554;2024-02-28T07:04:12;95901.53;;;14.93;43.86
82555;BME280;72219;48.186;11.554;2024-02-28T07:06:37;95907.53;;;14.94;43.99
82555;BME280;72219;48.186;11.554;2024-02-28T07:09:04;95914.91;;;14.99;43.64
82555;BME280;72219;48.186;11.554;2024-02-28T07:11:30;95917.34;;;15.00;43.59
82555;BME280;72219;48.186;11.554;2024-02-28T07:13:55;95906.41;;;14.96;43.65
82555;BME280;72219;48.186;11.554;2024-02-28T07:16:22;95914.56;;;15.02;43.48
82555;BME280;72219;48.186;11.554;2024-02-28T07:18:48;95915.56;;;15.09;43.77
82555;BME280;72219;48.186;11.554;2024-02-28T07:21:13;95910.66;;;15.06;43.61
82555;BME280;72219;48.186;11.554;2024-02-28T07:23:39;95904.94;;;14.94;43.31
82555;BME280;72219;48.186;11.554;2024-02-28T07:26:06;95918.47;;;15.06;43.90
82555;BME280;72219;48.186;11.554;2024-02-28T07:28:32;95912.28;;;15.07;43.61
82555;BME280;72219;48.186;11.554;2024-02-28T07:30:58;95917.16;;;15.10;43.21
82555;BME280;72219;48.186;11.554;2024-02-28T07:33:23;95911.31;;;15.08;43.20
82555;BME280;72219;48.186;11.554;2024-02-28T07:35:52;95918.31;;;15.16;43.28
82555;BME280;72219;48.186;11.554;2024-02-28T07:38:18;95907.06;;;15.07;43.37
82555;BME280;72219;48.186;11.554;2024-02-28T07:40:45;95911.66;;;15.13;43.23
82555;BME280;72219;48.186;11.554;2024-02-28T07:43:11;95904.47;;;15.15;43.12
82555;BME280;72219;48.186;11.554;2024-02-28T07:45:36;95914.25;;;15.29;43.23
82555;BME280;72219;48.186;11.554;2024-02-28T07:48:02;95908.72;;;15.24;42.85
82555;BME280;72219;48.186;11.554;2024-02-28T07:50:27;95917.66;;;15.30;43.03
82555;BME280;72219;48.186;11.554;2024-02-28T07:52:56;95920.09;;;15.31;43.06
82555;BME280;72219;48.186;11.554;2024-02-28T07:55:21;95920.59;;;15.27;42.91
82555;BME280;72219;48.186;11.554;2024-02-28T07:57:53;95923.84;;;15.29;42.94
82555;BME280;72219;48.186;11.554;2024-02-28T08:00:18;95927.59;;;15.26;43.13
82555;BME280;72219;48.186;11.554;2024-02-28T08:02:45;95920.09;;;15.15;43.09
82555;BME280;72219;48.186;11.554;2024-02-28T08:05:13;95924.00;;;15.27;42.46
82555;BME280;72219;48.186;11.554;2024-02-28T08:07:38;95935.28;;;15.28;43.18
82555;BME280;72219;48.186;11.554;2024-02-28T08:10:04;95938.19;;;15.33;42.88
82555;BME280;72219;48.186;11.554;2024-02-28T08:12:49;95945.53;;;15.38;42.87
82555;BME280;72219;48.186;11.554;2024-02-28T08:15:16;95941.44;;;15.35;42.63
82555;BME280;72219;48.186;11.554;2024-02-28T08:17:42;95941.78;;;15.40;43.00
82555;BME280;72219;48.186;11.554;2024-02-28T08:20:07;95946.16;;;15.40;42.57
82555;BME280;72219;48.186;11.554;2024-02-28T08:22:33;95947.34;;;15.37;42.83
82555;BME280;72219;48.186;11.554;2024-02-28T08:24:59;95940.63;;;15.26;42.61
82555;BME280;72219;48.186;11.554;2024-02-28T08:27:24;95952.38;;;15.39;42.70
82555;BME280;72219;48.186;11.554;2024-02-28T08:29:50;95961.34;;;15.36;42.78
82555;BME280;72219;48.186;11.554;2024-02-28T08:32:17;95955.47;;;15.34;43.02
82555;BME280;72219;48.186;11.554;2024-02-28T08:34:45;95958.91;;;15.43;42.81
82555;BME280;72219;48.186;11.554;2024-02-28T08:37:14;95960.84;;;15.41;42.71
82555;BME280;72219;48.186;11.554;2024-02-28T08:39:40;95961.50;;;15.35;42.96
82555;BME280;72219;48.186;11.554;2024-02-28T08:42:05;95964.41;;;15.40;42.93
82555;BME280;72219;48.186;11.554;2024-02-28T08:44:34;95964.13;;;15.35;42.52
82555;BME280;72219;48.186;11.554;2024-02-28T08:46:59;95963.13;;;15.27;42.97
82555;BME280;72219;48.186;11.554;2024-02-28T08:49:25;95971.44;;;15.31;42.68
82555;BME280;72219;48.186;11.554;2024-02-28T08:51:51;95969.31;;;15.26;42.88
82555;BME280;72219;48.186;11.554;2024-02-28T08:54:18;95979.44;;;15.29;42.89
82555;BME280;72219;48.186;11.554;2024-02-28T08:56:43;95974.03;;;15.31;43.29
82555;BME280;72219;48.186;11.554;2024-02-28T08:59:08;95969.16;;;15.36;42.86
82555;BME280;72219;48.186;11.554;2024-02-28T09:01:36;95962.81;;;15.30;42.50
82555;BME280;72219;48.186;11.554;2024-02-28T09:04:02;95979.75;;;15.43;42.42
82555;BME280;72219;48.186;11.554;2024-02-28T09:06:28;95983.00;;;15.45;42.98
82555;BME280;72219;48.186;11.554;2024-02-28T09:08:54;95985.78;;;15.43;42.90
82555;BME280;72219;48.186;11.554;2024-02-28T09:11:19;95968.50;;;15.42;42.55
82555;BME280;72219;48.186;11.554;2024-02-28T09:13:45;95992.78;;;15.51;42.28
82555;BME280;72219;48.186;11.554;2024-02-28T09:16:10;95991.50;;;15.55;42.61
82555;BME280;72219;48.186;11.554;2024-02-28T09:18:36;95991.47;;;15.63;42.08
82555;BME280;72219;48.186;11.554;2024-02-28T09:21:01;95998.81;;;15.68;42.34
82555;BME280;72219;48.186;11.554;2024-02-28T09:23:26;96002.06;;;15.70;42.34
82555;BME280;72219;48.186;11.554;2024-02-28T09:25:52;95995.38;;;15.68;42.16
82555;BME280;72219;48.186;11.554;2024-02-28T09:28:17;96000.59;;;15.76;41.84
82555;BME280;72219;48.186;11.554;2024-02-28T09:30:43;95991.47;;;15.72;41.72
82555;BME280;72219;48.186;11.554;2024-02-28T09:33:09;95994.25;;;15.78;41.72
82555;BME280;72219;48.186;11.554;2024-02-28T09:35:35;96005.84;;;15.84;41.65
82555;BME280;72219;48.186;11.554;2024-02-28T09:38:02;96014.31;;;15.78;41.83
82555;BME280;72219;48.186;11.554;2024-02-28T09:40:27;96007.81;;;15.82;41.92
82555;BME280;72219;48.186;11.554;2024-02-28T09:43:01;96003.72;;;15.88;41.69
82555;BME280;72219;48.186;11.554;2024-02-28T09:45:28;96008.44;;;15.92;41.47
82555;BME280;72219;48.186;11.554;2024-02-28T09:47:56;96013.00;;;15.98;41.39
82555;BME280;72219;48.186;11.554;2024-02-28T09:50:22;96014.31;;;16.03;41.66
82555;BME280;72219;48.186;11.554;2024-02-28T09:52:48;96008.91;;;16.04;40.97
82555;BME280;72219;48.186;11.554;2024-02-28T09:55:13;96009.75;;;16.05;41.47
82555;BME280;72219;48.186;11.554;2024-02-28T09:57:41;96013.00;;;15.98;41.39
82555;BME280;72219;48.186;11.554;2024-02-28T10:00:10;96023.44;;;15.90;41.73
82555;BME280;72219;48.186;11.554;2024-02-28T10:02:37;96022.50;;;15.83;42.04
82555;BME280;72219;48.186;11.554;2024-02-28T10:05:04;96013.66;;;15.76;42.10
82555;BME280;72219;48.186;11.554;2024-02-28T10:07:30;96012.66;;;15.77;42.04
82555;BME280;72219;48.186;11.554;2024-02-28T10:09:56;96012.34;;;15.72;42.19
82555;BME280;72219;48.186;11.554;2024-02-28T10:12:21;96019.22;;;15.81;42.16
82555;BME280;72219;48.186;11.554;2024-02-28T10:14:49;95997.19;;;15.67;42.01
82555;BME280;72219;48.186;11.554;2024-02-28T10:17:16;96019.53;;;15.70;42.18
82555;BME280;72219;48.186;11.554;2024-02-28T10:19:41;96014.16;;;15.63;42.15
82555;BME280;72219;48.186;11.554;2024-02-28T10:22:06;96019.03;;;15.58;42.52
82555;BME280;72219;48.186;11.554;2024-02-28T10:24:33;96019.03;;;15.66;42.40
82555;BME280;72219;48.186;11.554;2024-02-28T10:27:01;96019.38;;;15.71;42.07
82555;BME280;72219;48.186;11.554;2024-02-28T10:29:26;96029.31;;;15.92;41.60
82555;BME280;72219;48.186;11.554;2024-02-28T10:31:58;96028.31;;;16.10;41.54
82555;BME280;72219;48.186;11.554;2024-02-28T10:34:23;96026.03;;;16.15;41.56
82555;BME280;72219;48.186;11.554;2024-02-28T10:36:49;96033.53;;;16.26;41.19
82555;BME280;72219;48.186;11.554;2024-02-28T10:39:15;96024.03;;;16.34;40.75
82555;BME280;72219;48.186;11.554;2024-02-28T10:41:41;96031.69;;;16.35;40.97
82555;BME280;72219;48.186;11.554;2024-02-28T10:44:08;96012.97;;;16.15;41.42
82555;BME280;72219;48.186;11.554;2024-02-28T10:46:37;96031.72;;;16.27;40.96
82555;BME280;72219;48.186;11.554;2024-02-28T10:49:04;96032.34;;;16.29;40.96
82555;BME280;72219;48.186;11.554;2024-02-28T10:51:31;96022.06;;;16.27;40.85
82555;BME280;72219;48.186;11.554;2024-02-28T10:54:12;96023.88;;;16.27;41.12
82555;BME280;72219;48.186;11.554;2024-02-28T10:56:41;96027.00;;;16.22;41.33
82555;BME280;72219;48.186;11.554;2024-02-28T10:59:08;96041.19;;;16.28;40.94
82555;BME280;72219;48.186;11.554;2024-02-28T11:01:35;96027.63;;;16.24;40.64
82555;BME280;72219;48.186;11.554;2024-02-28T11:04:02;96035.75;;;16.38;40.66
82555;BME280;72219;48.186;11.554;2024-02-28T11:06:28;96024.50;;;16.37;40.50
82555;BME280;72219;48.186;11.554;2024-02-28T11:08:55;96023.53;;;16.30;41.11
82555;BME280;72219;48.186;11.554;2024-02-28T11:11:22;96044.59;;;16.28;41.34
82555;BME280;72219;48.186;11.554;2024-02-28T11:13:55;96035.78;;;16.29;40.58
82555;BME280;72219;48.186;11.554;2024-02-28T11:16:31;96038.53;;;16.36;40.61
82555;BME280;72219;48.186;11.554;2024-02-28T11:19:00;96036.75;;;16.28;41.22
82555;BME280;72219;48.186;11.554;2024-02-28T11:21:27;96045.06;;;16.40;40.75
82555;BME280;72219;48.186;11.554;2024-02-28T11:23:57;96049.97;;;16.35;40.75
82555;BME280;72219;48.186;11.554;2024-02-28T11:26:23;96051.59;;;16.36;41.10
82555;BME280;72219;48.186;11.554;2024-02-28T11:28:49;96054.25;;;16.28;40.91
82555;BME280;72219;48.186;11.554;2024-02-28T11:31:15;96049.34;;;16.17;41.33
82555;BME280;72219;48.186;11.554;2024-02-28T11:33:41;96053.44;;;16.11;41.28
82555;BME280;72219;48.186;11.554;2024-02-28T11:36:06;96038.94;;;16.00;41.71
82555;BME280;72219;48.186;11.554;2024-02-28T11:38:34;96046.59;;;16.02;41.84
82555;BME280;72219;48.186;11.554;2024-02-28T11:41:03;96050.19;;;16.09;41.59
82555;BME280;72219;48.186;11.554;2024-02-28T11:43:31;96061.13;;;16.04;41.68
82555;BME280;72219;48.186;11.554;2024-02-28T11:45:58;96053.44;;;16.11;41.39
82555;BME280;72219;48.186;11.554;2024-02-28T11:48:24;96055.41;;;16.09;41.71
82555;BME280;72219;48.186;11.554;2024-02-28T11:50:50;96062.09;;;16.11;41.86
82555;BME280;72219;48.186;11.554;2024-02-28T11:53:16;96053.94;;;16.06;41.53
82555;BME280;72219;48.186;11.554;2024-02-28T11:55:42;96043.03;;;15.94;41.55
82555;BME280;72219;48.186;11.554;2024-02-28T11:58:08;96059.97;;;16.07;41.61
82555;BME280;72219;48.186;11.554;2024-02-28T12:00:34;96048.56;;;16.08;41.27
82555;BME280;72219;48.186;11.554;2024-02-28T12:03:06;96038.75;;;16.10;41.33
82555;BME280;72219;48.186;11.554;2024-02-28T12:05:31;96054.88;;;16.22;41.45
82555;BME280;72219;48.186;11.554;2024-02-28T12:07:57;96060.94;;;16.22;41.15
82555;BME280;72219;48.186;11.554;2024-02-28T12:10:23;96046.13;;;16.06;41.39
82555;BME280;72219;48.186;11.554;2024-02-28T12:12:48;96057.34;;;16.15;41.46
82555;BME280;72219;48.186;11.554;2024-02-28T12:15:15;96053.13;;;16.06;41.52
82555;BME280;72219;48.186;11.554;2024-02-28T12:17:42;96044.81;;;16.02;41.63
82555;BME280;72219;48.186;11.554;2024-02-28T12:20:08;96054.28;;;16.11;41.65
82555;BME280;72219;48.186;11.554;2024-02-28T12:22:34;96051.47;;;16.21;41.46
82555;BME280;72219;48.186;11.554;2024-02-28T12:24:59;96050.19;;;16.17;41.21
82555;BME280;72219;48.186;11.554;2024-02-28T12:27:29;96051.66;;;16.20;41.61
82555;BME280;72219;48.186;11.554;2024-02-28T12:29:56;96050.97;;;16.26;41.82
82555;BME280;72219;48.186;11.554;2024-02-28T12:32:21;96059.28;;;16.29;41.05
82555;BME280;72219;48.186;11.554;2024-02-28T12:34:46;96057.03;;;16.26;41.22
82555;BME280;72219;48.186;11.554;2024-02-28T12:37:16;96057.03;;;16.26;41.58
82555;BME280;72219;48.186;11.554;2024-02-28T12:39:41;96056.34;;;16.24;41.31
82555;BME280;72219;48.186;11.554;2024-02-28T12:42:07;96042.34;;;16.17;41.47
82555;BME280;72219;48.186;11.554;2024-02-28T12:44:33;96052.28;;;16.22;41.15
82555;BME280;72219;48.186;11.554;2024-02-28T12:46:58;96051.63;;;16.28;41.22